CheckWX is a tool to help pilots better visualize weather data.  It is not intended as a substitute for an official pre-flight weather briefing.

12:36:23 UTC

KBTR METAR
Baton Rouge Metropolitan, Ryan Field Airport
Baton Rouge, Louisiana, USA
Current

43 mins ago

KBTR 261153Z 05006KT 7SM -RA OVC070 10/09 A3009 RMK AO2 SLP187 P0004 60012 70012 T01000089 10122 20100 56014
Observed
Jan-26 @ 11:53 UTC
Wind
  • 050° at 6 KTS
Visibility
7 SM
Flight Rules
VFR
Conditions
Light Rain
Cloud Levels
  • Overcast at 7,000' AGL
Temperature
10°C / 50°F
Dewpoint
C / 48°F
Humidity
94%
Altimeter
30.09" Hg
Pressure
1018.92 hPa
Current Rain
0.04"
24 Hour Rain
0.12"
Previous

2 hours ago

KBTR 261053Z 00000KT 5SM RA BR SCT060 SCT070 OVC090 10/09 A3011 RMK AO2 SLP195 P0002 T01000094
Observed
Jan-26 @ 10:53 UTC
Visibility
5 SM
Flight Rules
MVFR
Conditions
Rain, Mist
Cloud Levels
  • Scattered at 6,000' AGL
  • Scattered at 7,000' AGL
  • Overcast at 9,000' AGL
Temperature
10°C / 50°F
Dewpoint
C / 48°F
Humidity
94%
Altimeter
30.11" Hg
Pressure
1019.62 hPa
Current Rain
0.02"
Previous

3 hours ago

KBTR 260953Z AUTO 36004KT 9SM -RA FEW080 OVC100 11/09 A3009 RMK AO2 RAE31B50 SLP190 P0002 T01060089
Observed
Jan-26 @ 09:53 UTC
Wind
  • 360° at 4 KTS
Visibility
9 SM
Flight Rules
VFR
Conditions
Light Rain
Cloud Levels
  • Few at 8,000' AGL
  • Overcast at 10,000' AGL
Temperature
11°C / 52°F
Dewpoint
C / 48°F
Humidity
88%
Altimeter
30.09" Hg
Pressure
1018.92 hPa
Current Rain
0.02"